createdAt,value
2023-02-17T05:12:40.230Z,1.57
2023-02-17T05:15:44.967Z,1.58
2023-02-17T05:18:47.694Z,1.64
2023-02-17T05:21:51.540Z,1.77
2023-02-17T05:24:54.330Z,1.81
2023-02-17T05:27:57.225Z,2.04
2023-02-17T05:31:01.062Z,2.07
2023-02-17T05:34:04.239Z,2.14
2023-02-17T05:37:06.835Z,2.16
2023-02-17T05:40:11.103Z,2.15
2023-02-17T05:43:13.698Z,2.20
2023-02-17T05:46:17.596Z,2.26
2023-02-17T05:49:20.205Z,2.40
2023-02-17T05:52:23.295Z,2.63
2023-02-17T05:55:25.854Z,2.68
2023-02-17T05:58:28.760Z,2.85
2023-02-17T06:01:31.459Z,3.02
2023-02-17T06:04:34.303Z,3.11
2023-02-17T06:07:37.001Z,3.29
2023-02-17T06:10:42.172Z,3.31
2023-02-17T06:13:44.749Z,3.42
2023-02-17T06:16:47.727Z,3.32
2023-02-17T06:19:50.511Z,3.41
2023-02-17T06:22:53.356Z,3.34
2023-02-17T06:25:56.279Z,3.48
2023-02-17T06:28:59.194Z,3.71
2023-02-17T06:32:01.922Z,3.57
2023-02-17T06:35:05.032Z,3.58
2023-02-17T06:38:07.928Z,3.68
2023-02-17T06:41:10.874Z,3.64
2023-02-17T06:44:13.428Z,3.44
2023-02-17T06:47:19.223Z,3.52
2023-02-17T06:50:21.970Z,3.50
2023-02-17T06:53:24.844Z,3.31
2023-02-17T06:56:27.480Z,3.33
2023-02-17T06:59:33.117Z,3.55
2023-02-17T07:02:38.814Z,3.56
2023-02-17T07:05:41.951Z,3.69
2023-02-17T07:08:45.089Z,3.72
2023-02-17T07:11:49.442Z,3.72
2023-02-17T07:14:52.350Z,3.87
2023-02-17T07:17:55.374Z,3.93
2023-02-17T07:20:58.417Z,3.86
2023-02-17T07:24:01.508Z,3.78
2023-02-17T07:27:06.172Z,3.82
2023-02-17T07:30:09.615Z,3.85
2023-02-17T07:33:12.191Z,4.02
2023-02-17T07:36:17.214Z,4.10
2023-02-17T07:39:19.853Z,4.02
2023-02-17T07:42:24.358Z,4.04
2023-02-17T07:45:27.862Z,4.11
2023-02-17T07:48:31.518Z,4.42
2023-02-17T07:51:34.521Z,4.50
2023-02-17T07:54:37.482Z,4.69
2023-02-17T07:57:40.263Z,5.04
2023-02-17T08:00:43.375Z,5.28
2023-02-17T08:03:47.813Z,5.51
2023-02-17T08:06:51.402Z,5.85
2023-02-17T08:10:12.927Z,6.16
2023-02-17T08:13:21.568Z,6.56
2023-02-17T08:16:26.926Z,6.81
2023-02-17T08:19:42.870Z,6.99
2023-02-17T08:22:49.993Z,7.21
2023-02-17T08:25:53.056Z,7.48
2023-02-17T08:28:56.565Z,7.69
2023-02-17T08:31:59.218Z,8.11
2023-02-17T08:35:02.248Z,8.52
2023-02-17T08:38:04.955Z,8.81
2023-02-17T08:41:26.748Z,9.05
2023-02-17T08:44:29.476Z,9.09
2023-02-17T08:47:32.409Z,8.90
2023-02-17T08:50:35.220Z,9.12
2023-02-17T08:53:38.134Z,9.59
2023-02-17T08:56:41.931Z,10.18
2023-02-17T08:59:48.125Z,10.87
2023-02-17T09:02:50.895Z,12.42
2023-02-17T09:05:56.211Z,13.23
2023-02-17T09:08:59.799Z,13.21
2023-02-17T09:12:02.754Z,13.18
2023-02-17T09:15:06.287Z,13.59
2023-02-17T09:18:09.589Z,13.55
2023-02-17T09:21:13.702Z,13.65
2023-02-17T09:24:17.549Z,13.70
2023-02-17T09:27:20.605Z,14.50
2023-02-17T09:30:23.879Z,15.44
2023-02-17T09:33:27.242Z,16.15
2023-02-17T09:36:38.388Z,15.92
2023-02-17T09:39:41.027Z,16.02
2023-02-17T09:42:44.064Z,15.08
2023-02-17T09:45:58.993Z,14.46
2023-02-17T09:49:12.655Z,14.20
2023-02-17T09:52:29.592Z,14.23
2023-02-17T09:55:41.340Z,14.24
2023-02-17T09:58:50.470Z,14.23
2023-02-17T10:01:55.622Z,14.05
2023-02-17T10:05:05.788Z,13.71
2023-02-17T10:08:18.257Z,13.28
2023-02-17T10:11:35.790Z,13.11
2023-02-17T10:14:41.287Z,12.77
2023-02-17T10:18:06.164Z,12.72
2023-02-17T10:21:22.109Z,12.69
2023-02-17T10:24:25.953Z,12.55
2023-02-17T10:27:41.590Z,12.61
2023-02-17T10:31:10.290Z,12.60
2023-02-17T10:34:26.348Z,12.86
2023-02-17T10:38:09.273Z,12.94
2023-02-17T10:41:17.680Z,13.12
2023-02-17T10:44:25.027Z,12.81
2023-02-17T10:47:27.877Z,12.57
2023-02-17T10:50:31.372Z,12.35
2023-02-17T10:53:40.780Z,12.72
2023-02-17T10:56:52.922Z,12.48
2023-02-17T10:59:55.818Z,12.38
2023-02-17T11:02:58.945Z,12.22
2023-02-17T11:06:04.985Z,11.80
2023-02-17T11:09:33.457Z,11.50
2023-02-17T11:12:41.459Z,11.56
2023-02-17T11:15:46.559Z,11.58
2023-02-17T11:18:50.196Z,11.63
2023-02-17T11:21:55.225Z,11.63
2023-02-17T11:24:59.876Z,11.73
2023-02-17T11:28:07.434Z,11.81
2023-02-17T11:31:31.765Z,11.77
2023-02-17T11:34:37.678Z,11.80
2023-02-17T11:37:43.414Z,11.71
2023-02-17T11:40:59.397Z,11.96
2023-02-17T11:44:02.033Z,11.91
2023-02-17T11:47:04.799Z,12.31
2023-02-17T11:50:41.987Z,12.36
2023-02-17T11:53:50.719Z,12.22
2023-02-17T11:57:02.538Z,12.09
2023-02-17T12:00:22.151Z,11.95
2023-02-17T12:03:53.371Z,12.00
2023-02-17T12:07:15.311Z,11.73
2023-02-17T12:10:27.391Z,11.69
2023-02-17T12:13:55.598Z,11.52
2023-02-17T12:17:13.918Z,11.32
2023-02-17T12:20:38.106Z,11.19
2023-02-17T12:24:10.110Z,11.11
2023-02-17T12:27:33.114Z,11.04
2023-02-17T12:30:54.981Z,10.77
2023-02-17T12:34:06.684Z,10.87
2023-02-17T12:37:22.798Z,10.77
2023-02-17T12:40:57.518Z,10.87
2023-02-17T12:44:07.067Z,10.98
2023-02-17T12:47:17.713Z,11.35
2023-02-17T12:50:32.931Z,11.69
2023-02-17T12:53:41.326Z,11.50
2023-02-17T12:56:55.066Z,11.77
2023-02-17T13:00:00.562Z,12.03
2023-02-17T13:03:05.048Z,12.18
2023-02-17T13:06:34.297Z,12.27
2023-02-17T13:09:42.652Z,12.19
2023-02-17T13:12:59.702Z,12.24
2023-02-17T13:16:14.216Z,12.21
2023-02-17T13:19:28.443Z,12.09
2023-02-17T13:22:31.836Z,11.96
2023-02-17T13:25:37.750Z,11.90
2023-02-17T13:28:41.727Z,11.80
2023-02-17T13:31:50.801Z,11.66
2023-02-17T13:35:20.751Z,11.67
2023-02-17T13:38:31.553Z,11.71
2023-02-17T13:41:46.886Z,11.65
2023-02-17T13:44:51.370Z,11.79
2023-02-17T13:47:59.313Z,11.82
2023-02-17T13:51:04.164Z,11.87
2023-02-17T13:54:09.280Z,11.97
2023-02-17T13:57:27.974Z,11.97
2023-02-17T14:00:32.268Z,11.91
2023-02-17T14:03:56.487Z,11.99
2023-02-17T14:07:01.079Z,11.86
2023-02-17T14:10:05.187Z,11.96
2023-02-17T14:13:11.124Z,11.95
2023-02-17T14:16:35.806Z,11.82
2023-02-17T14:19:46.656Z,11.99
2023-02-17T14:23:04.222Z,11.95
2023-02-17T14:26:26.067Z,11.90
2023-02-17T14:29:42.536Z,11.79
2023-02-17T14:32:45.325Z,11.67
2023-02-17T14:35:57.525Z,11.64
2023-02-17T14:39:02.732Z,11.80
2023-02-17T14:42:05.867Z,11.81
2023-02-17T14:45:09.016Z,11.66
2023-02-17T14:48:12.009Z,11.66
2023-02-17T14:51:20.937Z,11.62
2023-02-17T14:54:26.851Z,11.48
2023-02-17T14:57:30.226Z,11.41
2023-02-17T15:00:33.212Z,11.30
2023-02-17T15:03:36.410Z,11.42
2023-02-17T15:06:43.488Z,11.12
2023-02-17T15:09:48.112Z,10.96
2023-02-17T15:12:51.621Z,10.86
2023-02-17T15:15:54.489Z,10.80
2023-02-17T15:18:58.225Z,10.90
2023-02-17T15:22:02.279Z,10.73
2023-02-17T15:25:11.976Z,10.65
2023-02-17T15:28:16.738Z,10.57
2023-02-17T15:31:21.358Z,10.58
2023-02-17T15:34:30.823Z,10.58
2023-02-17T15:37:34.414Z,10.71
2023-02-17T15:40:37.159Z,10.62
2023-02-17T15:43:41.013Z,10.44
2023-02-17T15:46:47.423Z,10.38
2023-02-17T15:49:50.441Z,10.33
2023-02-17T15:52:53.039Z,10.15
2023-02-17T15:55:56.998Z,10.05
2023-02-17T15:59:04.744Z,9.88
2023-02-17T16:02:21.111Z,9.77
2023-02-17T16:05:27.308Z,9.88
2023-02-17T16:08:30.098Z,10.09
2023-02-17T16:11:34.266Z,10.06
2023-02-17T16:14:38.123Z,9.95
2023-02-17T16:17:41.659Z,9.79
2023-02-17T16:20:44.281Z,9.64
2023-02-17T16:23:47.128Z,9.54
2023-02-17T16:26:50.079Z,9.42
2023-02-17T16:29:52.972Z,9.29
2023-02-17T16:32:55.904Z,9.25
2023-02-17T16:35:58.861Z,9.17
2023-02-17T16:39:10.439Z,9.16
2023-02-17T16:42:15.370Z,9.13
2023-02-17T16:45:22.082Z,9.17
2023-02-17T16:48:28.035Z,9.16
2023-02-17T16:51:30.856Z,9.25
2023-02-17T16:54:35.694Z,9.23
2023-02-17T16:57:38.542Z,9.16
2023-02-17T17:00:42.090Z,9.25
2023-02-17T17:03:45.132Z,9.42
2023-02-17T17:06:50.743Z,9.51
2023-02-17T17:10:15.170Z,9.38
2023-02-17T17:13:16.999Z,9.28
2023-02-17T17:16:24.751Z,9.24
2023-02-17T17:19:27.674Z,9.22
2023-02-17T17:22:30.451Z,9.17
2023-02-17T17:25:38.549Z,9.29
2023-02-17T17:28:41.434Z,9.12
2023-02-17T17:31:45.333Z,9.20
2023-02-17T17:34:52.021Z,9.08
2023-02-17T17:37:57.389Z,9.03
2023-02-17T17:41:00.254Z,8.95
2023-02-17T17:44:03.382Z,8.89
2023-02-17T17:47:06.151Z,8.76
2023-02-17T17:50:16.844Z,8.63
2023-02-17T17:53:19.734Z,8.58
2023-02-17T17:56:28.919Z,8.49
2023-02-17T17:59:31.979Z,8.57
2023-02-17T18:02:35.585Z,8.48
2023-02-17T18:05:38.936Z,8.47
2023-02-17T18:08:43.866Z,8.45
2023-02-17T18:11:47.250Z,8.41
2023-02-17T18:14:54.258Z,8.40
2023-02-17T18:17:57.545Z,8.47
2023-02-17T18:21:00.526Z,8.43
2023-02-17T18:24:04.199Z,8.43
2023-02-17T18:27:07.218Z,8.60
2023-02-17T18:30:20.420Z,8.62
2023-02-17T18:33:26.108Z,8.60
2023-02-17T18:36:30.332Z,8.61
2023-02-17T18:39:33.820Z,8.67
2023-02-17T18:42:38.407Z,8.87
2023-02-17T18:45:41.849Z,8.88
2023-02-17T18:48:46.129Z,8.83
2023-02-17T18:51:48.921Z,8.73
2023-02-17T18:54:52.389Z,8.72
2023-02-17T18:57:55.954Z,8.68
2023-02-17T19:00:59.117Z,8.64
2023-02-17T19:04:02.253Z,8.60
2023-02-17T19:07:07.002Z,8.54
2023-02-17T19:10:11.515Z,8.44
2023-02-17T19:13:15.134Z,8.46
2023-02-17T19:16:27.202Z,8.40
2023-02-17T19:19:31.936Z,8.39
2023-02-17T19:22:37.911Z,8.43
2023-02-17T19:25:40.928Z,8.43
2023-02-17T19:28:44.218Z,8.40
2023-02-17T19:31:49.378Z,8.46
2023-02-17T19:34:53.411Z,8.50
2023-02-17T19:37:56.715Z,8.59
2023-02-17T19:41:02.343Z,8.82
2023-02-17T19:44:06.858Z,8.75
2023-02-17T19:47:10.610Z,8.71
2023-02-17T19:50:15.135Z,8.66
2023-02-17T19:53:19.226Z,8.69
2023-02-17T19:56:25.647Z,8.67
2023-02-17T19:59:31.715Z,8.80
2023-02-17T20:02:36.694Z,8.71
2023-02-17T20:05:41.270Z,8.71
2023-02-17T20:08:46.404Z,8.80
2023-02-17T20:11:53.382Z,8.74
2023-02-17T20:14:56.647Z,8.74
2023-02-17T20:17:59.946Z,8.72
2023-02-17T20:21:03.928Z,8.71
2023-02-17T20:24:07.259Z,8.70
2023-02-17T20:27:11.014Z,8.70
2023-02-17T20:30:16.859Z,8.61
2023-02-17T20:33:21.445Z,8.65
2023-02-17T20:36:32.783Z,8.57
2023-02-17T20:39:36.818Z,8.46
2023-02-17T20:42:40.607Z,8.41
2023-02-17T20:45:44.892Z,8.37
2023-02-17T20:48:49.015Z,8.31
2023-02-17T20:51:51.844Z,8.19
2023-02-17T20:54:55.110Z,8.18
2023-02-17T20:57:57.834Z,8.21
2023-02-17T21:01:01.044Z,8.38
2023-02-17T21:04:03.857Z,8.67
2023-02-17T21:07:07.808Z,8.90
2023-02-17T21:10:22.624Z,9.14
2023-02-17T21:13:25.767Z,9.53
2023-02-17T21:16:31.126Z,10.07
2023-02-17T21:19:34.672Z,10.35
2023-02-17T21:22:37.544Z,10.67
2023-02-17T21:25:40.641Z,10.87
2023-02-17T21:28:43.701Z,10.67
2023-02-17T21:31:46.892Z,10.70
2023-02-17T21:34:49.510Z,10.50
2023-02-17T21:37:52.659Z,10.48
2023-02-17T21:40:56.100Z,10.76
2023-02-17T21:44:18.622Z,10.78
2023-02-17T21:47:22.441Z,10.95
2023-02-17T21:50:27.246Z,11.06
2023-02-17T21:53:29.987Z,11.10
2023-02-17T21:56:33.633Z,11.05
2023-02-17T21:59:36.869Z,11.04
2023-02-17T22:02:40.339Z,11.00
2023-02-17T22:05:43.158Z,10.90
2023-02-17T22:08:46.915Z,10.88
2023-02-17T22:11:50.044Z,10.74
2023-02-17T22:14:52.760Z,10.70
2023-02-17T22:17:55.625Z,10.64
2023-02-17T22:20:58.408Z,10.57
2023-02-17T22:24:04.149Z,10.58
2023-02-17T22:27:06.832Z,10.62
2023-02-17T22:30:13.605Z,10.89
2023-02-17T22:33:16.809Z,10.77
2023-02-17T22:36:22.653Z,11.01
2023-02-17T22:39:25.374Z,11.24
2023-02-17T22:42:29.037Z,11.44
2023-02-17T22:45:32.007Z,11.84
2023-02-17T22:48:37.629Z,11.89
2023-02-17T22:51:40.999Z,11.98
2023-02-17T22:54:44.381Z,12.29
2023-02-17T22:57:47.886Z,12.39
2023-02-17T23:00:52.205Z,12.39
2023-02-17T23:03:55.783Z,12.45
2023-02-17T23:06:59.113Z,12.40
2023-02-17T23:10:01.833Z,12.45
2023-02-17T23:13:05.844Z,12.52
2023-02-17T23:16:13.755Z,12.59
2023-02-17T23:19:19.568Z,12.45
2023-02-17T23:22:22.278Z,12.48
2023-02-17T23:25:25.675Z,12.42
2023-02-17T23:28:29.717Z,12.34
2023-02-17T23:31:34.206Z,12.33
2023-02-17T23:34:38.791Z,12.21
2023-02-17T23:37:43.552Z,12.39
2023-02-17T23:40:51.482Z,12.25
2023-02-17T23:43:55.196Z,12.21
2023-02-17T23:46:57.781Z,12.18
2023-02-17T23:50:00.886Z,12.34
2023-02-17T23:53:05.458Z,12.46
2023-02-17T23:56:22.148Z,12.52
2023-02-17T23:59:24.622Z,12.65
